Time;durP1;ratioP1;P1;durP2;ratioP2;P2;SDS_P1;SDS_P2;PMS_P1;PMS_P2;Temp;Humidity;BMP_temperature;BMP_pressure;BME280_temperature;BME280_humidity;BME280_pressure;Samples;Min_cycle;Max_cycle;Signal;HPM_P1;HPM_P2
2022/12/12 00:00:03;;;;;;;56.33;25.83;;;-2.90;99.90;;;;;;5049029;28;20027;-49
2022/12/12 00:02:29;;;;;;;49.35;21.77;;;-2.90;99.90;;;;;;5049341;28;20053;-48
2022/12/12 00:04:57;;;;;;;58.65;24.80;;;-2.90;99.90;;;;;;5052084;28;20040;-49
2022/12/12 00:07:23;;;;;;;49.25;22.23;;;-2.90;99.90;;;;;;5053097;28;20386;-50
2022/12/12 00:09:48;;;;;;;58.15;24.38;;;-2.80;99.90;;;;;;5052584;28;20037;-49
2022/12/12 00:12:14;;;;;;;52.47;23.00;;;-2.70;99.90;;;;;;5052781;28;20498;-49
2022/12/12 00:14:39;;;;;;;54.65;23.30;;;-2.60;99.90;;;;;;5052790;28;20064;-49
2022/12/12 00:17:05;;;;;;;53.80;24.13;;;-2.60;99.90;;;;;;5052982;28;20029;-49
2022/12/12 00:19:30;;;;;;;56.05;22.88;;;-2.50;99.90;;;;;;5052175;28;20052;-49
2022/12/12 00:21:56;;;;;;;45.33;22.60;;;-2.50;99.90;;;;;;5052811;28;20070;-49
2022/12/12 00:24:21;;;;;;;48.70;22.35;;;-2.50;99.90;;;;;;5052911;28;20035;-49
2022/12/12 00:26:47;;;;;;;53.10;22.38;;;-2.50;99.90;;;;;;5060818;28;20124;-51
2022/12/12 00:29:12;;;;;;;45.80;20.83;;;-2.50;99.90;;;;;;5063876;28;20029;-49
2022/12/12 00:31:38;;;;;;;56.75;24.17;;;-2.50;99.90;;;;;;5072743;28;20032;-50
2022/12/12 00:34:03;;;;;;;52.42;22.75;;;-2.40;99.90;;;;;;5072610;28;20103;-49
2022/12/12 00:36:30;;;;;;;55.60;22.65;;;-2.40;99.90;;;;;;5072368;28;20079;-47
2022/12/12 00:38:56;;;;;;;53.92;23.30;;;-2.30;99.90;;;;;;5072849;28;20058;-48
2022/12/12 00:41:22;;;;;;;48.50;21.70;;;-2.30;99.90;;;;;;5066511;28;20013;-48
2022/12/12 00:43:48;;;;;;;53.88;23.33;;;-2.30;99.90;;;;;;5052257;28;20639;-49
2022/12/12 00:46:16;;;;;;;52.97;22.45;;;-2.30;99.90;;;;;;5052555;28;20041;-47
2022/12/12 00:48:42;;;;;;;49.72;22.65;;;-2.40;99.90;;;;;;5052449;28;20025;-49
2022/12/12 00:51:10;;;;;;;49.13;21.52;;;-2.30;99.90;;;;;;5051582;28;20047;-50
2022/12/12 00:53:36;;;;;;;51.47;23.25;;;-2.30;99.90;;;;;;5052308;28;20107;-50
2022/12/12 00:56:03;;;;;;;50.83;22.42;;;-2.30;99.90;;;;;;5053864;28;20041;-48
2022/12/12 00:58:30;;;;;;;51.67;22.30;;;-2.40;99.90;;;;;;5063677;28;20465;-48
2022/12/12 01:01:04;;;;;;;51.42;22.50;;;-2.30;99.90;;;;;;5071706;28;20028;-50
2022/12/12 01:03:32;;;;;;;58.35;22.77;;;-2.30;99.90;;;;;;5072397;28;20062;-48
2022/12/12 01:05:58;;;;;;;54.50;23.73;;;-2.30;99.90;;;;;;5072073;28;20020;-48
2022/12/12 01:08:23;;;;;;;51.72;22.00;;;-2.30;99.90;;;;;;5072347;28;20580;-48
2022/12/12 01:10:49;;;;;;;58.30;22.40;;;-2.40;99.90;;;;;;5070332;28;20475;-41
2022/12/12 01:13:15;;;;;;;63.58;24.42;;;-2.40;99.90;;;;;;5051495;28;20013;-41
2022/12/12 01:15:41;;;;;;;51.03;22.27;;;-2.40;99.90;;;;;;5051623;28;20060;-42
2022/12/12 01:18:07;;;;;;;55.75;24.27;;;-2.40;99.90;;;;;;5051684;28;20104;-42
2022/12/12 01:20:33;;;;;;;55.22;24.27;;;-2.40;99.90;;;;;;5051215;28;20029;-42
2022/12/12 01:22:58;;;;;;;56.80;24.10;;;-2.40;99.90;;;;;;5051583;28;20020;-42
2022/12/12 01:25:26;;;;;;;60.00;25.60;;;-2.40;99.90;;;;;;5051850;28;20374;-42
2022/12/12 01:27:55;;;;;;;52.53;24.13;;;-2.40;99.90;;;;;;5061901;28;20085;-41
2022/12/12 01:30:21;;;;;;;56.53;24.52;;;-2.40;99.90;;;;;;5051018;28;20029;-41
2022/12/12 01:32:47;;;;;;;57.33;24.42;;;-2.40;99.90;;;;;;5051701;28;20024;-41
2022/12/12 01:35:13;;;;;;;52.58;22.55;;;-2.50;99.90;;;;;;5051198;28;20045;-42
2022/12/12 01:37:39;;;;;;;53.10;23.95;;;-2.50;99.90;;;;;;5051492;28;20088;-42
2022/12/12 01:40:13;;;;;;;51.95;25.42;;;-2.50;99.90;;;;;;5050967;28;20035;-42
2022/12/12 01:42:39;;;;;;;57.75;24.83;;;-2.50;99.90;;;;;;5051233;28;20024;-41
2022/12/12 01:45:06;;;;;;;55.97;23.60;;;-2.60;99.90;;;;;;5051262;28;20021;-42
2022/12/12 01:47:31;;;;;;;57.78;25.08;;;-2.50;99.90;;;;;;5051377;28;20028;-42
2022/12/12 01:50:04;;;;;;;54.97;22.42;;;-2.60;99.90;;;;;;5050639;28;20029;-41
2022/12/12 01:52:56;;;;;;;57.28;24.45;;;-2.60;99.90;;;;;;5051307;28;20025;-41
2022/12/12 01:55:25;;;;;;;58.90;23.73;;;-2.50;99.90;;;;;;5047640;28;20037;-42
2022/12/12 01:57:53;;;;;;;63.22;26.02;;;-2.60;99.90;;;;;;5059023;28;20048;-41
2022/12/12 02:00:19;;;;;;;62.50;24.35;;;-2.50;99.90;;;;;;5070686;28;20067;-42
2022/12/12 02:02:46;;;;;;;59.90;25.20;;;-2.60;99.90;;;;;;5071224;28;20065;-43
2022/12/12 02:05:23;;;;;;;62.03;24.70;;;-2.60;99.90;;;;;;5070793;28;20031;-42
2022/12/12 02:07:49;;;;;;;52.17;24.42;;;-2.60;99.90;;;;;;5070760;28;20025;-42
2022/12/12 02:10:15;;;;;;;63.90;25.88;;;-2.60;99.90;;;;;;5068929;28;20024;-42
2022/12/12 02:12:41;;;;;;;57.08;23.88;;;-2.60;99.90;;;;;;5053732;28;20021;-41
2022/12/12 02:15:07;;;;;;;59.95;23.60;;;-2.60;99.90;;;;;;5050665;28;20103;-43
2022/12/12 02:17:45;;;;;;;60.35;25.35;;;-2.70;99.90;;;;;;5050674;28;20032;-42
2022/12/12 02:20:14;;;;;;;58.38;24.35;;;-2.70;99.90;;;;;;5049838;28;20087;-42
2022/12/12 02:22:46;;;;;;;58.30;23.77;;;-2.70;99.90;;;;;;5050534;28;20102;-42
2022/12/12 02:25:50;;;;;;;59.05;23.88;;;-2.70;99.90;;;;;;5050394;28;20359;-42
2022/12/12 02:28:53;;;;;;;58.47;26.45;;;-2.70;99.90;;;;;;5053112;28;20025;-43
2022/12/12 02:31:21;;;;;;;53.75;21.60;;;-2.80;99.90;;;;;;5070279;28;20024;-42
2022/12/12 02:34:00;;;;;;;55.67;23.48;;;-2.80;99.90;;;;;;5070676;28;20062;-42
2022/12/12 02:36:36;;;;;;;56.78;23.67;;;-2.80;99.90;;;;;;5070181;28;20056;-43
2022/12/12 02:39:27;;;;;;;56.22;22.48;;;-2.80;99.90;;;;;;5070540;28;20012;-42
2022/12/12 02:42:04;;;;;;;57.25;23.38;;;-2.80;99.90;;;;;;5060390;28;20014;-44
2022/12/12 02:44:34;;;;;;;55.45;23.67;;;-2.90;99.90;;;;;;5048891;28;20417;-42
2022/12/12 02:47:17;;;;;;;63.05;25.75;;;-2.80;99.90;;;;;;5050200;28;20071;-42
2022/12/12 02:49:48;;;;;;;56.35;25.60;;;-2.80;99.90;;;;;;5049419;28;20028;-43
2022/12/12 02:52:15;;;;;;;54.55;22.98;;;-2.70;99.90;;;;;;5050268;28;20122;-42
2022/12/12 02:54:41;;;;;;;60.53;25.30;;;-2.70;99.90;;;;;;5050032;28;20029;-43
2022/12/12 02:57:19;;;;;;;59.47;23.63;;;-2.70;99.90;;;;;;5056129;28;20578;-41
2022/12/12 02:59:51;;;;;;;54.65;24.55;;;-2.60;99.90;;;;;;5065542;28;20052;-44
2022/12/12 03:02:22;;;;;;;61.42;25.58;;;-2.60;99.90;;;;;;5070150;28;20095;-42
2022/12/12 03:08:33;;;;;;;54.65;23.33;;;-2.50;99.90;;;;;;5070220;28;20031;-42
2022/12/12 03:11:03;;;;;;;57.47;24.10;;;-2.50;99.90;;;;;;5067052;28;20038;-47
2022/12/12 03:13:49;;;;;;;62.58;25.08;;;-2.50;99.90;;;;;;5048514;28;20035;-42
2022/12/12 03:16:18;;;;;;;53.15;22.58;;;-2.60;99.90;;;;;;5048634;28;20060;-42
2022/12/12 03:19:25;;;;;;;55.33;23.13;;;-2.50;99.90;;;;;;5049805;28;20017;-43
2022/12/12 03:21:53;;;;;;;55.35;23.92;;;-2.50;99.90;;;;;;5050003;28;20025;-43
2022/12/12 03:24:42;;;;;;;58.20;24.85;;;-2.50;99.90;;;;;;5049665;28;20104;-42
2022/12/12 03:27:19;;;;;;;53.97;22.75;;;-2.50;99.90;;;;;;5055928;28;20709;-42
2022/12/12 03:30:01;;;;;;;59.03;24.70;;;-2.50;99.90;;;;;;5065173;28;20103;-42
2022/12/12 03:32:38;;;;;;;57.78;24.60;;;-2.40;99.90;;;;;;5070099;28;20028;-42
2022/12/12 03:35:18;;;;;;;59.45;26.20;;;-2.50;99.90;;;;;;5069612;28;20060;-42
2022/12/12 03:37:53;;;;;;;68.45;26.40;;;-2.50;99.90;;;;;;5069926;28;20036;-43
2022/12/12 03:40:32;;;;;;;63.80;25.90;;;-2.40;99.90;;;;;;5073244;28;20714;-43
2022/12/12 03:43:31;;;;;;;57.97;26.80;;;-2.40;99.90;;;;;;5054247;28;20401;-42
2022/12/12 03:46:15;;;;;;;56.58;23.90;;;-2.40;99.90;;;;;;5045998;28;20090;-41
2022/12/12 03:49:07;;;;;;;51.78;24.15;;;-2.40;99.90;;;;;;5033580;28;20033;-43
2022/12/12 03:51:39;;;;;;;59.97;24.20;;;-2.40;99.90;;;;;;5029961;28;20083;-42
2022/12/12 03:54:22;;;;;;;56.15;24.58;;;-2.50;99.90;;;;;;5033428;28;20510;-43
2022/12/12 03:56:57;;;;;;;54.40;23.98;;;-2.50;99.90;;;;;;5038918;28;20030;-43
2022/12/12 03:59:37;;;;;;;54.55;24.90;;;-2.50;99.90;;;;;;5045476;28;20027;-42
2022/12/12 04:02:11;;;;;;;57.72;26.25;;;-2.50;99.90;;;;;;5053388;28;20581;-42
2022/12/12 04:04:43;;;;;;;55.10;23.77;;;-2.50;99.90;;;;;;5047545;28;20075;-42
2022/12/12 04:07:21;;;;;;;59.67;27.08;;;-2.40;99.90;;;;;;5051837;28;20116;-42
2022/12/12 04:12:58;;;;;;;52.55;23.35;;;-2.50;99.90;;;;;;5052662;28;20111;-42
2022/12/12 04:15:46;;;;;;;52.05;23.10;;;-2.50;99.90;;;;;;5033220;28;20108;-42
2022/12/12 04:18:29;;;;;;;56.72;23.52;;;-2.50;99.90;;;;;;5031516;28;20340;-42
2022/12/12 04:24:23;;;;;;;59.15;23.40;;;-2.50;99.90;;;;;;5044106;28;20036;-43
2022/12/12 04:27:15;;;;;;;64.93;25.50;;;-2.60;99.90;;;;;;5039382;28;20025;-44
2022/12/12 04:29:51;;;;;;;56.97;24.90;;;-2.50;99.90;;;;;;5041512;28;20424;-43
2022/12/12 04:32:31;;;;;;;61.33;25.42;;;-2.50;99.90;;;;;;5040563;28;20021;-42
2022/12/12 04:35:12;;;;;;;55.80;25.58;;;-2.50;99.90;;;;;;5042370;28;20576;-43
2022/12/12 04:37:39;;;;;;;64.50;28.52;;;-2.50;99.90;;;;;;5042889;28;20473;-42
2022/12/12 04:40:08;;;;;;;53.88;23.75;;;-2.60;99.90;;;;;;5039367;28;20022;-42
2022/12/12 04:42:39;;;;;;;64.28;26.35;;;-2.60;99.90;;;;;;5042851;28;20045;-42
2022/12/12 04:45:12;;;;;;;57.45;23.08;;;-2.60;99.90;;;;;;5043350;28;20025;-42
2022/12/12 04:47:40;;;;;;;59.53;26.75;;;-2.70;99.90;;;;;;5040239;28;20055;-42
2022/12/12 04:50:08;;;;;;;61.25;26.60;;;-2.70;99.90;;;;;;5040870;28;20052;-42
2022/12/12 04:52:34;;;;;;;56.13;24.25;;;-2.80;99.90;;;;;;5044635;28;20113;-42
2022/12/12 04:55:25;;;;;;;59.28;24.88;;;-2.80;99.90;;;;;;5043427;28;20037;-42
2022/12/12 04:57:54;;;;;;;55.92;24.35;;;-2.80;99.90;;;;;;5041653;28;20104;-41
2022/12/12 05:00:22;;;;;;;58.88;23.77;;;-2.80;99.90;;;;;;5040843;28;20017;-42
2022/12/12 05:03:11;;;;;;;60.13;27.05;;;-2.90;99.90;;;;;;5039872;28;20013;-42
2022/12/12 05:05:59;;;;;;;45.80;19.88;;;-2.90;99.90;;;;;;5043942;28;20033;-42
2022/12/12 05:08:32;;;;;;;63.97;26.60;;;-2.90;99.90;;;;;;5050701;28;20475;-43
2022/12/12 05:11:02;;;;;;;61.97;25.52;;;-2.90;99.90;;;;;;5051415;28;20025;-42
2022/12/12 05:13:35;;;;;;;61.58;28.67;;;-2.90;99.90;;;;;;5051526;28;20371;-42
2022/12/12 05:16:07;;;;;;;60.20;24.55;;;-2.90;99.90;;;;;;5051483;28;20056;-42
2022/12/12 05:18:33;;;;;;;65.00;26.77;;;-3.00;99.90;;;;;;5051963;28;20024;-41
2022/12/12 05:20:59;;;;;;;66.18;26.65;;;-3.00;99.90;;;;;;5047800;28;20029;-42
2022/12/12 05:23:24;;;;;;;68.53;28.30;;;-3.00;99.90;;;;;;5063196;28;20085;-42
2022/12/12 05:25:50;;;;;;;66.78;28.10;;;-3.00;99.90;;;;;;5071600;28;20488;-43
2022/12/12 05:28:15;;;;;;;65.55;27.08;;;-3.10;99.90;;;;;;5054813;28;20041;-42
2022/12/12 05:30:41;;;;;;;62.63;26.00;;;-3.10;99.90;;;;;;5038660;28;20033;-42
2022/12/12 05:33:07;;;;;;;72.40;29.58;;;-3.10;99.90;;;;;;5039706;28;20473;-42
2022/12/12 05:35:32;;;;;;;60.45;25.65;;;-3.10;99.90;;;;;;5038432;28;20029;-42
2022/12/12 05:38:00;;;;;;;67.63;28.83;;;-3.10;99.90;;;;;;5041645;28;20451;-42
2022/12/12 05:40:25;;;;;;;59.25;26.90;;;-3.20;99.90;;;;;;5039940;28;20053;-42
2022/12/12 05:42:51;;;;;;;63.78;26.10;;;-3.20;99.90;;;;;;5044135;28;20056;-43
2022/12/12 05:45:17;;;;;;;66.18;27.55;;;-3.20;99.90;;;;;;5042349;28;20504;-43
2022/12/12 05:47:42;;;;;;;68.03;29.00;;;-3.20;99.90;;;;;;5039741;28;20067;-42
2022/12/12 05:50:08;;;;;;;70.93;28.10;;;-3.20;99.90;;;;;;5039915;28;20021;-43
2022/12/12 05:52:34;;;;;;;61.95;25.52;;;-3.20;99.90;;;;;;5041381;28;20030;-44
2022/12/12 05:55:00;;;;;;;65.45;26.65;;;-3.30;99.90;;;;;;5051095;28;20458;-43
2022/12/12 05:57:26;;;;;;;64.00;25.88;;;-3.30;99.90;;;;;;5054455;28;20032;-42
2022/12/12 05:59:51;;;;;;;65.07;27.05;;;-3.30;99.90;;;;;;5053420;28;20066;-43
2022/12/12 06:02:17;;;;;;;68.63;27.90;;;-3.40;99.90;;;;;;5050223;28;20499;-49
2022/12/12 06:04:43;;;;;;;69.75;26.83;;;-3.30;99.90;;;;;;5046185;28;20081;-43
2022/12/12 06:07:09;;;;;;;67.57;27.73;;;-3.40;99.90;;;;;;5045907;28;20911;-42
2022/12/12 06:09:35;;;;;;;65.78;26.10;;;-3.40;99.90;;;;;;5044835;28;20033;-43
2022/12/12 06:12:01;;;;;;;82.15;31.60;;;-3.40;99.90;;;;;;5045524;28;20025;-43
2022/12/12 06:14:27;;;;;;;70.03;27.40;;;-3.50;99.90;;;;;;5049145;28;20089;-42
2022/12/12 06:16:53;;;;;;;71.13;28.58;;;-3.40;99.90;;;;;;5050880;28;20624;-45
2022/12/12 06:19:20;;;;;;;69.07;30.27;;;-3.50;99.90;;;;;;5050381;28;20458;-43
2022/12/12 06:21:48;;;;;;;69.60;28.13;;;-3.50;99.90;;;;;;5050410;28;20434;-42
2022/12/12 06:24:17;;;;;;;69.40;27.77;;;-3.50;99.90;;;;;;5050267;28;20021;-43
2022/12/12 06:26:45;;;;;;;74.78;29.25;;;-3.50;99.90;;;;;;5050208;28;20017;-45
2022/12/12 06:29:11;;;;;;;76.68;31.08;;;-3.50;99.90;;;;;;5060446;28;20404;-42
2022/12/12 06:31:37;;;;;;;68.43;29.10;;;-3.50;99.90;;;;;;5070612;28;20493;-43
2022/12/12 06:34:03;;;;;;;74.25;29.10;;;-3.50;99.90;;;;;;5070599;28;20024;-42
2022/12/12 06:36:29;;;;;;;80.60;29.67;;;-3.40;99.90;;;;;;5070286;28;20119;-43
2022/12/12 06:38:57;;;;;;;70.60;28.92;;;-3.40;99.90;;;;;;5070473;28;20020;-43
2022/12/12 06:41:25;;;;;;;68.43;27.73;;;-3.40;99.90;;;;;;5062634;28;20470;-43
2022/12/12 06:43:50;;;;;;;74.07;28.20;;;-3.40;99.90;;;;;;5049771;28;20561;-43
2022/12/12 06:46:20;;;;;;;69.63;27.50;;;-3.30;99.90;;;;;;5050216;28;20105;-43
2022/12/12 06:48:46;;;;;;;76.80;29.02;;;-3.30;99.90;;;;;;5050237;28;20021;-43
2022/12/12 06:51:15;;;;;;;73.90;31.20;;;-3.30;99.90;;;;;;5049530;28;20017;-43
2022/12/12 06:53:41;;;;;;;68.97;28.38;;;-3.30;99.90;;;;;;5050110;28;20021;-42
2022/12/12 06:56:13;;;;;;;64.70;26.95;;;-3.30;99.90;;;;;;5050125;28;20040;-43
2022/12/12 06:58:39;;;;;;;68.65;29.40;;;-3.20;99.90;;;;;;5056971;28;20787;-42
2022/12/12 07:01:06;;;;;;;77.90;29.60;;;-3.20;99.90;;;;;;5068126;28;20021;-43
2022/12/12 07:03:32;;;;;;;63.90;27.05;;;-3.20;99.90;;;;;;5069976;28;20485;-42
2022/12/12 07:05:58;;;;;;;72.18;29.05;;;-3.20;99.90;;;;;;5050066;28;20561;-43
2022/12/12 07:08:24;;;;;;;74.20;29.80;;;-3.10;99.90;;;;;;5049812;28;20025;-43
2022/12/12 07:10:49;;;;;;;73.53;30.13;;;-3.10;99.90;;;;;;5049496;28;20009;-42
2022/12/12 07:13:15;;;;;;;68.95;28.42;;;-3.00;99.90;;;;;;5051690;28;20101;-43
2022/12/12 07:15:45;;;;;;;60.33;25.83;;;-3.00;99.90;;;;;;5054291;28;20548;-43
2022/12/12 07:18:11;;;;;;;69.88;29.33;;;-3.00;99.90;;;;;;5054010;28;20560;-43
2022/12/12 07:20:45;;;;;;;61.13;27.55;;;-3.00;99.90;;;;;;5053366;28;20115;-42
2022/12/12 07:23:11;;;;;;;65.03;27.67;;;-3.00;99.90;;;;;;5050379;28;20021;-42
2022/12/12 07:25:39;;;;;;;72.85;28.40;;;-2.90;99.90;;;;;;5054036;28;20640;-43
2022/12/12 07:28:04;;;;;;;65.22;28.95;;;-2.90;99.90;;;;;;5050146;28;20028;-42
2022/12/12 07:30:30;;;;;;;70.53;29.00;;;-2.90;99.90;;;;;;5053503;28;20028;-43
2022/12/12 07:32:55;;;;;;;67.10;30.45;;;-2.80;99.90;;;;;;5053893;28;20033;-43
2022/12/12 07:35:22;;;;;;;66.18;28.58;;;-2.80;99.90;;;;;;5051898;28;20036;-43
2022/12/12 07:37:47;;;;;;;63.72;28.15;;;-2.80;99.90;;;;;;5061758;28;20104;-43
2022/12/12 07:40:13;;;;;;;66.18;28.70;;;-2.80;99.90;;;;;;5053358;28;20055;-42
2022/12/12 07:42:38;;;;;;;77.70;29.80;;;-2.80;99.90;;;;;;5046989;28;20669;-43
2022/12/12 07:45:04;;;;;;;59.05;25.15;;;-2.80;99.90;;;;;;5051966;28;20411;-47
2022/12/12 07:47:30;;;;;;;61.22;27.33;;;-2.70;99.90;;;;;;5048963;28;20029;-43
2022/12/12 07:49:56;;;;;;;62.17;24.95;;;-2.70;99.90;;;;;;5051535;28;20048;-43
2022/12/12 07:52:21;;;;;;;70.22;28.40;;;-2.60;99.90;;;;;;5053276;28;20033;-43
2022/12/12 07:54:47;;;;;;;64.65;27.33;;;-2.60;99.90;;;;;;5043904;28;20115;-42
2022/12/12 07:57:12;;;;;;;62.75;26.15;;;-2.60;99.90;;;;;;5052485;28;20037;-43
2022/12/12 07:59:38;;;;;;;63.00;27.25;;;-2.60;99.90;;;;;;5052594;28;20021;-42
2022/12/12 08:02:04;;;;;;;72.32;30.08;;;-2.50;99.90;;;;;;5049918;28;20065;-43
2022/12/12 08:04:29;;;;;;;65.30;28.20;;;-2.50;99.90;;;;;;5053047;28;20106;-43
2022/12/12 08:06:56;;;;;;;67.80;28.98;;;-2.50;99.90;;;;;;5052958;28;20036;-43
2022/12/12 08:09:22;;;;;;;59.47;25.55;;;-2.50;99.90;;;;;;5051412;28;20025;-43
2022/12/12 08:11:48;;;;;;;63.33;28.88;;;-2.50;99.90;;;;;;5047421;28;20049;-43
2022/12/12 08:14:14;;;;;;;63.30;26.55;;;-2.50;99.90;;;;;;5051131;28;20114;-43
2022/12/12 08:16:39;;;;;;;66.18;29.65;;;-2.40;99.90;;;;;;5050369;28;20084;-43
2022/12/12 08:19:05;;;;;;;57.65;25.50;;;-2.40;99.90;;;;;;5051014;28;20025;-43
2022/12/12 08:21:32;;;;;;;68.15;28.85;;;-2.30;99.90;;;;;;5051774;28;20562;-42
2022/12/12 08:23:59;;;;;;;65.93;28.60;;;-2.30;99.90;;;;;;5043015;28;20028;-44
2022/12/12 08:26:26;;;;;;;70.55;28.13;;;-2.30;99.90;;;;;;5064152;28;20406;-44
2022/12/12 08:28:52;;;;;;;61.45;27.75;;;-2.30;99.90;;;;;;5049678;28;20024;-42
2022/12/12 08:31:19;;;;;;;61.65;26.65;;;-2.30;99.90;;;;;;5052037;28;20486;-43
2022/12/12 08:33:45;;;;;;;57.70;27.73;;;-2.20;99.90;;;;;;5045722;28;20028;-43
2022/12/12 08:36:16;;;;;;;63.95;28.55;;;-2.20;99.90;;;;;;5051654;28;20053;-44
2022/12/12 08:38:42;;;;;;;67.88;30.08;;;-2.20;99.90;;;;;;5046818;28;20738;-44
2022/12/12 08:41:08;;;;;;;62.65;28.75;;;-2.20;99.90;;;;;;5050868;28;20362;-41
2022/12/12 08:43:36;;;;;;;64.40;27.88;;;-2.10;99.90;;;;;;5050026;28;20025;-41
2022/12/12 08:46:03;;;;;;;60.35;27.52;;;-2.10;99.90;;;;;;5051287;28;20571;-41
2022/12/12 08:48:32;;;;;;;63.45;27.98;;;-2.00;99.90;;;;;;5046192;28;20024;-45
2022/12/12 08:50:58;;;;;;;71.20;28.88;;;-2.00;99.90;;;;;;5050449;28;20486;-43
2022/12/12 08:53:25;;;;;;;67.78;29.50;;;-2.00;99.90;;;;;;5062477;28;20093;-41
2022/12/12 08:55:51;;;;;;;62.80;27.98;;;-2.00;99.90;;;;;;5048756;28;20070;-41
2022/12/12 08:58:17;;;;;;;62.60;27.55;;;-1.90;99.90;;;;;;5050801;28;20385;-43
2022/12/12 09:00:42;;;;;;;63.60;28.38;;;-1.80;99.90;;;;;;5047207;28;20023;-42
2022/12/12 09:03:08;;;;;;;67.40;29.15;;;-1.70;99.90;;;;;;5051617;28;20029;-42
2022/12/12 09:05:33;;;;;;;58.35;28.25;;;-1.70;99.90;;;;;;5044236;28;20101;-42
2022/12/12 09:07:59;;;;;;;58.25;27.75;;;-1.60;99.90;;;;;;5045438;28;20042;-51
2022/12/12 09:10:26;;;;;;;63.35;28.95;;;-1.60;99.90;;;;;;5043750;28;20082;-42
2022/12/12 09:12:54;;;;;;;52.83;25.02;;;-1.60;99.90;;;;;;5045834;28;20029;-43
2022/12/12 09:15:20;;;;;;;56.67;25.65;;;-1.60;99.90;;;;;;5070312;28;20392;-42
2022/12/12 09:17:49;;;;;;;59.40;27.75;;;-1.50;99.90;;;;;;5055416;28;20028;-43
2022/12/12 09:20:15;;;;;;;66.22;26.90;;;-1.50;99.90;;;;;;5047886;28;20048;-43
2022/12/12 09:22:40;;;;;;;60.65;26.38;;;-1.40;99.90;;;;;;5048837;28;20021;-43
2022/12/12 09:25:06;;;;;;;58.03;26.13;;;-1.30;99.90;;;;;;5048460;28;20107;-43
2022/12/12 09:27:32;;;;;;;61.67;28.63;;;-1.40;99.90;;;;;;5048492;28;20021;-44
2022/12/12 09:29:58;;;;;;;58.58;27.88;;;-1.30;99.90;;;;;;5048912;28;20394;-44
2022/12/12 09:32:23;;;;;;;61.58;26.60;;;-1.30;99.90;;;;;;5048680;28;20386;-43
2022/12/12 09:34:49;;;;;;;64.20;26.83;;;-1.40;99.90;;;;;;5050209;28;20021;-44
2022/12/12 09:37:15;;;;;;;63.00;26.02;;;-1.30;99.90;;;;;;5049002;28;20092;-44
2022/12/12 09:39:40;;;;;;;58.95;27.95;;;-1.30;99.90;;;;;;5049806;28;20017;-43
2022/12/12 09:42:27;;;;;;;48.70;23.95;;;-1.30;99.90;;;;;;5050089;28;20028;-44
2022/12/12 09:44:57;;;;;;;63.78;25.40;;;-1.20;99.90;;;;;;5048141;28;20414;-43
2022/12/12 09:47:44;;;;;;;63.23;28.90;;;-1.10;99.90;;;;;;5050168;28;20028;-42
2022/12/12 09:50:29;;;;;;;54.92;26.50;;;-1.00;99.90;;;;;;5033949;28;20040;-42
2022/12/12 09:52:59;;;;;;;60.17;25.65;;;-0.90;99.90;;;;;;5051403;28;20028;-43
2022/12/12 09:55:39;;;;;;;55.20;25.17;;;-0.80;99.90;;;;;;5049838;28;20114;-42
2022/12/12 09:58:16;;;;;;;54.60;24.27;;;-0.70;99.90;;;;;;5051173;28;20623;-44
2022/12/12 10:00:47;;;;;;;50.85;25.08;;;-0.60;99.90;;;;;;5049646;28;20028;-42
2022/12/12 10:03:29;;;;;;;55.05;26.08;;;-0.50;99.90;;;;;;5050654;28;20024;-43
2022/12/12 10:06:06;;;;;;;51.40;25.50;;;-0.40;99.90;;;;;;5049575;28;20494;-43
2022/12/12 10:09:00;;;;;;;56.13;26.80;;;-0.50;99.90;;;;;;5050878;28;20033;-43
2022/12/12 10:11:53;;;;;;;53.20;24.88;;;-0.50;99.90;;;;;;5049103;28;20032;-43
2022/12/12 10:14:39;;;;;;;55.30;25.40;;;-0.50;99.90;;;;;;5042971;28;20013;-43
2022/12/12 10:17:37;;;;;;;58.35;25.17;;;-0.50;99.90;;;;;;5050618;28;20025;-44
2022/12/12 10:20:11;;;;;;;54.15;25.52;;;-0.50;99.90;;;;;;5049116;28;20064;-43
2022/12/12 10:22:45;;;;;;;54.95;25.63;;;-0.60;99.90;;;;;;5050854;28;20463;-43
2022/12/12 10:25:18;;;;;;;56.58;25.48;;;-0.60;99.90;;;;;;5050670;28;20025;-43
2022/12/12 10:27:44;;;;;;;60.13;25.67;;;-0.60;99.90;;;;;;5050542;28;20029;-43
2022/12/12 10:30:15;;;;;;;55.42;27.10;;;-0.70;99.90;;;;;;5049897;28;20036;-43
2022/12/12 10:32:52;;;;;;;49.85;24.38;;;-0.70;99.90;;;;;;5049209;28;20064;-43
2022/12/12 10:35:42;;;;;;;51.92;23.85;;;-0.70;99.90;;;;;;5050592;28;20028;-43
2022/12/12 10:39:15;;;;;;;59.83;24.77;;;-0.70;99.90;;;;;;5050312;28;20696;-44
2022/12/12 10:42:10;;;;;;;53.17;24.98;;;-0.60;99.90;;;;;;4990630;28;20041;-44
2022/12/12 10:44:46;;;;;;;58.40;24.98;;;-0.70;99.90;;;;;;5028839;28;20025;-42
2022/12/12 10:47:12;;;;;;;55.33;25.20;;;-0.60;99.90;;;;;;5045640;28;20390;-42
2022/12/12 10:49:39;;;;;;;61.92;26.27;;;-0.50;99.90;;;;;;5039363;28;20021;-43
2022/12/12 10:52:15;;;;;;;50.00;24.83;;;-0.50;99.90;;;;;;5049133;28;20029;-43
2022/12/12 10:54:49;;;;;;;46.78;22.30;;;-0.40;99.90;;;;;;5048947;28;20032;-43
2022/12/12 10:57:23;;;;;;;53.53;24.20;;;-0.40;99.90;;;;;;5049329;28;20029;-45
2022/12/12 10:59:53;;;;;;;49.97;23.25;;;-0.30;99.90;;;;;;5046879;28;20049;-44
2022/12/12 11:02:33;;;;;;;54.60;24.83;;;-0.20;99.90;;;;;;5048291;28;20029;-43
2022/12/12 11:05:07;;;;;;;51.25;24.15;;;-0.10;99.90;;;;;;5048331;28;20044;-42
2022/12/12 11:07:38;;;;;;;50.00;22.15;;;-0.10;99.90;;;;;;5048170;28;20029;-45
2022/12/12 11:10:24;;;;;;;53.47;25.27;;;-0.10;99.90;;;;;;5048053;28;20083;-43
2022/12/12 11:13:01;;;;;;;49.75;23.83;;;-0.10;99.90;;;;;;5048335;28;20029;-43
2022/12/12 11:15:38;;;;;;;44.92;22.63;;;0.00;99.90;;;;;;5049359;28;20029;-42
2022/12/12 11:18:04;;;;;;;47.67;23.23;;;0.00;99.90;;;;;;5049510;28;20030;-43
2022/12/12 11:20:30;;;;;;;47.35;21.50;;;0.10;99.90;;;;;;5048486;28;20017;-43
2022/12/12 11:22:56;;;;;;;50.60;24.10;;;0.10;99.90;;;;;;5049335;28;20412;-43
2022/12/12 11:25:31;;;;;;;52.30;25.58;;;0.10;99.90;;;;;;5047691;28;20529;-44
2022/12/12 11:28:00;;;;;;;50.38;23.20;;;0.10;99.90;;;;;;5047872;28;20040;-43
2022/12/12 11:30:33;;;;;;;48.55;24.27;;;0.00;99.90;;;;;;5045962;28;20029;-42
2022/12/12 11:33:01;;;;;;;51.88;25.20;;;0.10;99.90;;;;;;5045179;28;20033;-43
2022/12/12 11:35:38;;;;;;;47.08;22.95;;;0.10;99.90;;;;;;5047709;28;20075;-42
2022/12/12 11:38:19;;;;;;;51.47;24.48;;;0.10;99.90;;;;;;5048129;28;20021;-44
2022/12/12 11:40:55;;;;;;;52.90;25.27;;;0.10;99.90;;;;;;5046371;28;20355;-44
2022/12/12 11:43:26;;;;;;;52.00;23.38;;;0.10;99.90;;;;;;5038767;28;20013;-44
2022/12/12 11:46:09;;;;;;;50.08;25.25;;;0.20;99.90;;;;;;5041209;28;20036;-44
2022/12/12 11:48:53;;;;;;;45.88;24.75;;;0.20;99.90;;;;;;5040980;28;20040;-44
2022/12/12 11:51:30;;;;;;;45.90;22.83;;;0.20;99.90;;;;;;5043647;28;20261;-43
2022/12/12 11:53:57;;;;;;;45.72;23.15;;;0.10;99.90;;;;;;5047599;28;20116;-45
2022/12/12 11:56:38;;;;;;;42.55;22.75;;;0.10;99.90;;;;;;5047194;28;20106;-45
2022/12/12 11:59:24;;;;;;;49.72;23.77;;;0.10;99.90;;;;;;5047876;28;20371;-43
2022/12/12 12:02:26;;;;;;;44.88;22.30;;;0.10;99.90;;;;;;5052065;28;20025;-44
2022/12/12 12:05:19;;;;;;;45.20;21.98;;;0.10;99.90;;;;;;5051955;28;20029;-45
2022/12/12 12:07:56;;;;;;;38.63;21.00;;;0.10;99.90;;;;;;5050298;28;20044;-43
2022/12/12 12:10:52;;;;;;;36.13;19.38;;;0.10;99.90;;;;;;5049942;28;20019;-49
2022/12/12 12:13:35;;;;;;;29.40;15.60;;;0.00;99.90;;;;;;5042345;28;20470;-43
2022/12/12 12:16:15;;;;;;;36.08;17.08;;;0.00;99.90;;;;;;5049664;28;20036;-44
2022/12/12 12:19:05;;;;;;;31.45;16.45;;;0.00;99.90;;;;;;5051724;28;20029;-44
2022/12/12 12:22:00;;;;;;;29.35;14.85;;;0.00;99.90;;;;;;5051391;28;20024;-44
2022/12/12 12:24:57;;;;;;;24.67;13.43;;;-0.20;99.90;;;;;;5051458;28;20486;-43
2022/12/12 12:27:22;;;;;;;27.15;14.98;;;-0.20;99.90;;;;;;5050208;28;20024;-44
2022/12/12 12:30:04;;;;;;;29.30;16.20;;;-0.20;99.90;;;;;;5048578;28;20025;-44
2022/12/12 12:32:33;;;;;;;27.20;14.98;;;-0.20;99.90;;;;;;5045613;28;20080;-44
2022/12/12 12:35:22;;;;;;;27.55;15.80;;;-0.10;99.90;;;;;;5048651;28;20032;-44
2022/12/12 12:37:48;;;;;;;25.70;13.38;;;-0.10;99.90;;;;;;5048642;28;20025;-44
2022/12/12 12:40:42;;;;;;;26.52;14.88;;;-0.10;99.90;;;;;;5049952;28;20406;-44
2022/12/12 12:43:21;;;;;;;26.23;13.73;;;-0.10;99.90;;;;;;5049159;28;20017;-44
2022/12/12 12:46:02;;;;;;;24.65;13.95;;;-0.10;99.90;;;;;;5050376;28;20461;-43
2022/12/12 12:48:35;;;;;;;29.98;15.32;;;-0.10;99.90;;;;;;5049860;28;20506;-44
2022/12/12 12:51:09;;;;;;;24.85;14.07;;;0.00;99.90;;;;;;5043030;28;20037;-44
2022/12/12 12:53:44;;;;;;;26.77;15.05;;;0.00;99.90;;;;;;5049291;28;20377;-44
2022/12/12 12:56:26;;;;;;;28.58;15.55;;;-0.10;99.90;;;;;;5049649;28;20029;-43
2022/12/12 12:59:01;;;;;;;31.05;16.52;;;0.00;99.90;;;;;;5049381;28;20212;-45
2022/12/12 13:01:35;;;;;;;26.35;14.27;;;-0.20;99.90;;;;;;5049635;28;20017;-43